首页
METAR-TAF:

METAR-TAF

机场 :

摩根敦市立機場

摩根敦, 西維吉尼亞州, 美国

纬度: 39-38-58N, 经度: 079-55-16W, 海拔: 380米

当前天气观测

该预报发布于38分钟前的07:53 UTC
风速3节,风向西北
温度 6°C
湿度 70%
气压 1016 hPa
能見度: 16.1公里
阴天层高于2400英尺

METAR: KMGW 310753Z AUTO 32003KT 10SM OVC024 06/01 A3000 RMK AO2 SLP161 T00610011

时间: 04:31 (08:31 UTC)

预报

该预报发布于13分钟前的08:18 UTC
预报有效从31日的 08点(UTC)到 01日的 06点(UTC)
风速4节,风向北转东北
能見度: 10公里
阴天层高于2500英尺
从 01日的 0200点(UTC)
风速3节,风向多变
能見度: 10公里
阴天层高于2500英尺

TAF: KMGW 310818Z 3108/0106 03004KT P6SM OVC025 FM010200 VRB03KT P6SM OVC025

超过4000个机场的气象观测和天气预报(METAR&TAF报告)。

可查询的气象台以黄色和红色小点在地图上表示。

将鼠标移到小点上方,可查看气象台名称。

然后点击查看天气观测和预报。

如需切换地图:点击带黑十字的绿色按钮放大地图;点击带横线的绿色按钮缩小地图;或者点击绿色箭头查看邻近地区的地图。


METAR-TAF: